createdAt,value
2018-09-01T00:00:14.305Z,10.70
2018-09-01T00:02:41.669Z,10.70
2018-09-01T00:05:09.034Z,10.70
2018-09-01T00:07:36.385Z,10.60
2018-09-01T00:10:03.753Z,10.70
2018-09-01T00:12:31.121Z,10.60
2018-09-01T00:14:58.451Z,10.60
2018-09-01T00:17:28.256Z,10.50
2018-09-01T00:19:56.449Z,10.60
2018-09-01T00:22:23.835Z,10.60
2018-09-01T00:24:52.111Z,10.60
2018-09-01T00:27:19.899Z,10.50
2018-09-01T00:29:47.251Z,10.60
2018-09-01T00:32:14.600Z,10.40
2018-09-01T00:34:41.945Z,10.40
2018-09-01T00:37:09.368Z,10.40
2018-09-01T00:39:41.280Z,10.40
2018-09-01T00:42:08.620Z,10.40
2018-09-01T00:44:35.948Z,10.40
2018-09-01T00:47:03.319Z,10.50
2018-09-01T00:49:30.725Z,10.40
2018-09-01T00:51:58.069Z,10.30
2018-09-01T00:54:25.403Z,10.30
2018-09-01T00:56:52.748Z,10.40
2018-09-01T00:59:20.111Z,10.40
2018-09-01T01:01:47.446Z,10.40
2018-09-01T01:04:14.783Z,10.40
2018-09-01T01:06:42.114Z,10.30
2018-09-01T01:09:09.455Z,10.30
2018-09-01T01:11:36.881Z,10.30
2018-09-01T01:14:04.259Z,10.30
2018-09-01T01:16:31.644Z,10.30
2018-09-01T01:18:58.980Z,10.30
2018-09-01T01:21:26.440Z,10.30
2018-09-01T01:23:53.816Z,10.30
2018-09-01T01:26:21.149Z,10.20
2018-09-01T01:28:48.500Z,10.20
2018-09-01T01:31:15.835Z,10.10
2018-09-01T01:33:43.196Z,10.10
2018-09-01T01:36:10.568Z,10.10
2018-09-01T01:38:37.940Z,10.10
2018-09-01T01:41:05.443Z,10.10
2018-09-01T01:43:32.796Z,10.10
2018-09-01T01:46:00.149Z,10.10
2018-09-01T01:48:27.528Z,10.00
2018-09-01T01:50:54.845Z,10.00
2018-09-01T01:53:22.184Z,10.00
2018-09-01T01:55:49.567Z,10.00
2018-09-01T01:58:16.919Z,10.10
2018-09-01T02:00:44.266Z,10.10
2018-09-01T02:03:11.632Z,10.20
2018-09-01T02:05:38.972Z,10.10
2018-09-01T02:08:06.340Z,10.10
2018-09-01T02:10:33.682Z,10.00
2018-09-01T02:13:01.010Z,9.90
2018-09-01T02:15:28.356Z,9.80
2018-09-01T02:17:55.716Z,9.90
2018-09-01T02:20:23.051Z,9.90
2018-09-01T02:22:50.388Z,9.90
2018-09-01T02:25:17.723Z,10.00
2018-09-01T02:27:45.059Z,10.00
2018-09-01T02:30:12.417Z,10.20
2018-09-01T02:32:39.781Z,10.20
2018-09-01T02:35:07.148Z,10.00
2018-09-01T02:37:34.505Z,10.10
2018-09-01T02:40:01.860Z,10.10
2018-09-01T02:42:29.188Z,10.00
2018-09-01T02:44:56.557Z,10.00
2018-09-01T02:47:23.896Z,9.90
2018-09-01T02:49:51.255Z,9.90
2018-09-01T02:52:18.630Z,9.80
2018-09-01T02:54:45.940Z,9.90
2018-09-01T02:57:13.287Z,10.00
2018-09-01T02:59:40.672Z,9.90
2018-09-01T03:02:08.009Z,9.90
2018-09-01T03:04:35.351Z,9.90
2018-09-01T03:07:02.672Z,10.10
2018-09-01T03:09:30.019Z,10.20
2018-09-01T03:11:58.238Z,10.30
2018-09-01T03:14:26.320Z,10.10
2018-09-01T03:16:54.564Z,10.00
2018-09-01T03:19:22.328Z,10.10
2018-09-01T03:21:49.683Z,9.90
2018-09-01T03:24:17.051Z,10.10
2018-09-01T03:26:44.403Z,10.10
2018-09-01T03:29:11.740Z,10.10
2018-09-01T03:31:39.094Z,10.10
2018-09-01T03:34:06.428Z,10.00
2018-09-01T03:36:33.763Z,9.90
2018-09-01T03:39:01.524Z,9.90
2018-09-01T03:41:28.875Z,9.80
2018-09-01T03:43:56.217Z,9.70
2018-09-01T03:46:23.681Z,9.70
2018-09-01T03:48:51.458Z,9.70
2018-09-01T03:51:18.791Z,9.70
2018-09-01T03:53:46.148Z,9.70
2018-09-01T03:56:13.487Z,9.70
2018-09-01T03:58:40.884Z,9.70
2018-09-01T04:01:08.212Z,9.70
2018-09-01T04:03:35.713Z,9.70
2018-09-01T04:06:03.064Z,9.70
2018-09-01T04:08:30.491Z,9.60
2018-09-01T04:10:57.859Z,9.60
2018-09-01T04:13:25.208Z,9.60
2018-09-01T04:15:52.543Z,9.60
2018-09-01T04:18:19.883Z,9.50
2018-09-01T04:20:47.217Z,9.60
2018-09-01T04:23:14.563Z,9.60
2018-09-01T04:25:41.900Z,9.60
2018-09-01T04:28:09.246Z,9.60
2018-09-01T04:30:36.597Z,9.60
2018-09-01T04:33:03.947Z,9.60
2018-09-01T04:35:31.293Z,9.50
2018-09-01T04:37:58.688Z,9.50
2018-09-01T04:40:26.056Z,9.50
2018-09-01T04:42:53.404Z,9.40
2018-09-01T04:45:20.781Z,9.50
2018-09-01T04:47:48.141Z,9.40
2018-09-01T04:50:15.539Z,9.50
2018-09-01T04:52:43.035Z,9.40
2018-09-01T04:55:10.381Z,9.40
2018-09-01T04:57:37.851Z,9.40
2018-09-01T05:00:05.223Z,9.40
2018-09-01T05:02:32.585Z,9.40
2018-09-01T05:04:59.917Z,9.40
2018-09-01T05:07:27.251Z,9.40
2018-09-01T05:09:54.600Z,9.40
2018-09-01T05:14:59.156Z,9.40
2018-09-01T05:17:26.511Z,9.40
2018-09-01T05:19:53.855Z,9.40
2018-09-01T05:22:21.180Z,9.50
2018-09-01T05:24:48.565Z,9.60
2018-09-01T05:27:15.906Z,9.70
2018-09-01T05:29:43.255Z,9.90
2018-09-01T05:32:10.581Z,10.00
2018-09-01T05:34:37.944Z,10.20
2018-09-01T05:37:05.277Z,10.40
2018-09-01T05:39:32.639Z,10.60
2018-09-01T05:41:59.986Z,10.90
2018-09-01T05:44:27.316Z,11.10
2018-09-01T05:46:54.633Z,11.30
2018-09-01T05:49:21.980Z,11.50
2018-09-01T05:51:49.320Z,11.80
2018-09-01T05:54:16.660Z,12.10
2018-09-01T05:56:44.192Z,11.90
2018-09-01T05:59:11.529Z,11.90
2018-09-01T06:01:38.921Z,12.30
2018-09-01T06:04:06.260Z,12.50
2018-09-01T06:06:33.589Z,12.70
2018-09-01T06:09:00.939Z,12.40
2018-09-01T06:11:28.314Z,12.90
2018-09-01T06:13:55.651Z,12.90
2018-09-01T06:16:23.033Z,13.20
2018-09-01T06:18:50.372Z,13.70
2018-09-01T06:21:17.784Z,13.80
2018-09-01T06:23:45.172Z,14.20
2018-09-01T06:26:12.481Z,14.60
2018-09-01T06:28:44.680Z,14.50
2018-09-01T06:31:12.073Z,14.80
2018-09-01T06:33:39.476Z,14.90
2018-09-01T06:36:06.821Z,15.20
2018-09-01T06:38:34.197Z,15.30
2018-09-01T06:41:01.513Z,15.30
2018-09-01T06:43:28.864Z,15.80
2018-09-01T06:45:56.205Z,15.60
2018-09-01T06:48:23.558Z,16.20
2018-09-01T06:50:50.904Z,16.40
2018-09-01T06:53:18.251Z,16.80
2018-09-01T06:55:45.587Z,17.00
2018-09-01T06:58:12.962Z,17.30
2018-09-01T07:00:40.330Z,16.90
2018-09-01T07:03:07.682Z,16.70
2018-09-01T07:05:35.071Z,16.60
2018-09-01T07:08:02.443Z,16.90
2018-09-01T07:10:29.800Z,17.90
2018-09-01T07:12:57.616Z,18.10
2018-09-01T07:15:24.989Z,18.30
2018-09-01T07:17:52.329Z,18.80
2018-09-01T07:20:19.675Z,17.90
2018-09-01T07:22:47.008Z,18.20
2018-09-01T07:25:14.357Z,18.20
2018-09-01T07:27:41.696Z,17.90
2018-09-01T07:30:10.002Z,17.50
2018-09-01T07:32:37.408Z,18.30
2018-09-01T07:35:04.760Z,18.60
2018-09-01T07:37:32.124Z,17.70
2018-09-01T07:39:59.484Z,18.30
2018-09-01T07:42:26.834Z,18.80
2018-09-01T07:44:54.204Z,18.90
2018-09-01T07:47:21.535Z,18.30
2018-09-01T07:49:48.895Z,18.70
2018-09-01T07:52:16.208Z,18.60
2018-09-01T07:54:43.598Z,18.40
2018-09-01T07:57:10.974Z,18.70
2018-09-01T07:59:38.314Z,18.90
2018-09-01T08:02:05.819Z,19.30
2018-09-01T08:04:33.163Z,18.80
2018-09-01T08:07:00.505Z,18.80
2018-09-01T08:09:27.837Z,19.20
2018-09-01T08:11:55.171Z,18.50
2018-09-01T08:14:22.638Z,19.00
2018-09-01T08:16:49.925Z,19.70
2018-09-01T08:19:17.301Z,18.60
2018-09-01T08:21:44.690Z,18.60
2018-09-01T08:24:12.029Z,19.50
2018-09-01T08:26:39.373Z,18.90
2018-09-01T08:29:06.703Z,19.10
2018-09-01T08:31:34.038Z,19.40
2018-09-01T08:34:01.382Z,18.70
2018-09-01T08:36:28.721Z,20.10
2018-09-01T08:38:56.071Z,20.50
2018-09-01T08:41:23.423Z,20.30
2018-09-01T08:43:51.120Z,20.60
2018-09-01T08:46:18.449Z,20.70
2018-09-01T08:48:45.799Z,20.90
2018-09-01T08:51:13.163Z,21.00
2018-09-01T08:53:40.516Z,20.50
2018-09-01T08:56:07.867Z,19.70
2018-09-01T08:58:35.209Z,20.20
2018-09-01T09:01:02.552Z,20.00
2018-09-01T09:03:29.887Z,20.20
2018-09-01T09:05:57.225Z,20.70
2018-09-01T09:08:24.555Z,20.80
2018-09-01T09:10:51.895Z,20.30
2018-09-01T09:13:19.239Z,20.30
2018-09-01T09:15:47.319Z,21.30
2018-09-01T09:18:14.691Z,21.40
2018-09-01T09:20:42.156Z,21.70
2018-09-01T09:23:09.496Z,21.80
2018-09-01T09:25:36.843Z,22.00
2018-09-01T09:28:04.548Z,22.40
2018-09-01T09:30:31.877Z,21.90
2018-09-01T09:32:59.204Z,21.90
2018-09-01T09:35:26.547Z,21.30
2018-09-01T09:37:53.983Z,21.30
2018-09-01T09:40:21.460Z,20.40
2018-09-01T09:42:48.798Z,20.00
2018-09-01T09:45:16.133Z,19.70
2018-09-01T09:47:43.488Z,19.90
2018-09-01T09:50:10.843Z,19.60
2018-09-01T09:52:38.207Z,19.60
2018-09-01T09:55:05.696Z,19.30
2018-09-01T09:57:33.048Z,20.40
2018-09-01T10:00:00.387Z,20.80
2018-09-01T10:02:27.741Z,21.30
2018-09-01T10:04:55.091Z,20.50
2018-09-01T10:07:22.423Z,19.20
2018-09-01T10:09:49.758Z,18.50
2018-09-01T10:12:17.781Z,18.70
2018-09-01T10:14:45.112Z,18.50
2018-09-01T10:17:12.757Z,18.30
2018-09-01T10:19:40.095Z,19.10
2018-09-01T10:22:07.431Z,19.20
2018-09-01T10:24:34.859Z,19.00
2018-09-01T10:27:02.232Z,19.30
2018-09-01T10:29:29.553Z,19.50
2018-09-01T10:31:56.894Z,19.90
2018-09-01T10:34:24.240Z,20.00
2018-09-01T10:36:51.605Z,20.50
2018-09-01T10:39:18.944Z,19.30
2018-09-01T10:41:46.306Z,19.00
2018-09-01T10:44:13.643Z,19.40
2018-09-01T10:46:41.005Z,19.80
2018-09-01T10:49:08.395Z,19.80
2018-09-01T10:51:35.712Z,19.70
2018-09-01T10:54:03.068Z,19.70
2018-09-01T10:56:30.404Z,20.10
2018-09-01T10:58:57.936Z,20.40
2018-09-01T11:01:25.255Z,20.00
2018-09-01T11:03:52.596Z,19.50
2018-09-01T11:06:19.931Z,19.40
2018-09-01T11:08:47.276Z,19.40
2018-09-01T11:11:14.675Z,19.50
2018-09-01T11:13:42.109Z,19.50
2018-09-01T11:16:09.398Z,19.80
2018-09-01T11:18:36.725Z,19.30
2018-09-01T11:21:04.094Z,19.80
2018-09-01T11:23:31.449Z,19.40
2018-09-01T11:25:58.820Z,19.30
2018-09-01T11:28:26.209Z,19.40
2018-09-01T11:30:53.575Z,19.50
2018-09-01T11:33:20.934Z,19.50
2018-09-01T11:35:48.328Z,19.20
2018-09-01T11:38:15.671Z,19.20
2018-09-01T11:40:43.053Z,19.30
2018-09-01T11:43:10.848Z,19.20
2018-09-01T11:45:37.923Z,19.20
2018-09-01T11:48:05.395Z,19.30
2018-09-01T11:50:32.750Z,19.30
2018-09-01T11:53:00.116Z,19.40
2018-09-01T11:55:27.455Z,19.70
2018-09-01T22:13:05.447Z,12.20
2018-09-01T22:15:32.877Z,12.10
2018-09-01T22:18:00.589Z,12.10
2018-09-01T22:20:28.205Z,12.00
2018-09-01T22:22:55.894Z,11.80
2018-09-01T22:25:23.662Z,11.70
2018-09-01T22:27:51.420Z,11.50
2018-09-01T22:30:18.749Z,11.60
2018-09-01T22:32:46.095Z,14.70
2018-09-01T22:35:13.491Z,17.00
2018-09-01T22:37:40.847Z,14.40
2018-09-01T22:40:08.236Z,12.70
2018-09-01T22:42:35.909Z,12.00
2018-09-01T22:45:03.446Z,11.80
2018-09-01T22:47:32.340Z,11.60
2018-09-01T22:50:00.036Z,11.50
2018-09-01T22:52:27.697Z,11.50
2018-09-01T22:54:55.215Z,11.50
2018-09-01T22:57:22.946Z,11.40
2018-09-01T22:59:50.460Z,11.40
2018-09-01T23:02:18.160Z,11.50
2018-09-01T23:04:45.750Z,11.40
2018-09-01T23:07:13.384Z,11.40
2018-09-01T23:09:40.980Z,11.30
2018-09-01T23:12:08.671Z,11.20
2018-09-01T23:14:36.307Z,11.20
2018-09-01T23:17:03.984Z,11.20
2018-09-01T23:19:31.542Z,11.20
2018-09-01T23:21:59.267Z,11.20
2018-09-01T23:24:27.033Z,11.20
2018-09-01T23:26:54.708Z,11.10
2018-09-01T23:29:22.803Z,11.10
2018-09-01T23:31:50.547Z,11.00
2018-09-01T23:34:18.239Z,11.00
2018-09-01T23:36:46.016Z,11.20
2018-09-01T23:39:13.723Z,11.20
2018-09-01T23:41:41.483Z,11.30
2018-09-01T23:44:09.340Z,11.00
2018-09-01T23:46:38.309Z,11.00
2018-09-01T23:49:06.573Z,11.10
2018-09-01T23:51:34.412Z,11.30
2018-09-01T23:54:02.501Z,11.20
2018-09-01T23:56:30.394Z,11.30
2018-09-01T23:58:59.260Z,11.30
